Time;durP1;ratioP1;P1;durP2;ratioP2;P2;SDS_P1;SDS_P2;PMS_P1;PMS_P2;Temp;Humidity;BMP_temperature;BMP_pressure;BME280_temperature;BME280_humidity;BME280_pressure;Samples;Min_cycle;Max_cycle;Signal;HPM_P1;HPM_P2
2023/01/21 00:00:33;;;;;;;48.67;25.77;;;-2.30;99.90;;;;;;4939648;29;20130;-77
2023/01/21 00:02:59;;;;;;;66.00;29.80;;;-2.30;99.90;;;;;;4926691;29;20725;-77
2023/01/21 00:05:25;;;;;;;54.70;26.90;;;-2.40;99.90;;;;;;4939801;29;20039;-77
2023/01/21 00:07:54;;;;;;;53.22;27.92;;;-2.30;99.90;;;;;;4958622;28;20038;-77
2023/01/21 00:10:19;;;;;;;57.08;27.27;;;-2.30;99.90;;;;;;4943599;29;20047;-77
2023/01/21 00:12:51;;;;;;;52.72;25.75;;;-2.20;99.90;;;;;;4942185;28;20369;-77
2023/01/21 00:15:17;;;;;;;54.78;27.20;;;-2.40;99.90;;;;;;4926940;29;20097;-76
2023/01/21 00:17:42;;;;;;;57.83;26.80;;;-2.20;99.90;;;;;;4942258;29;20079;-76
2023/01/21 00:20:09;;;;;;;55.08;26.33;;;-2.40;99.90;;;;;;4942283;29;20122;-76
2023/01/21 00:22:35;;;;;;;60.65;28.27;;;-2.40;99.90;;;;;;4943063;29;20055;-76
2023/01/21 00:25:01;;;;;;;57.15;27.35;;;-2.30;99.90;;;;;;4941928;29;20117;-75
2023/01/21 00:27:27;;;;;;;59.80;27.00;;;-2.60;99.90;;;;;;4942427;29;20385;-76
2023/01/21 00:29:53;;;;;;;54.78;27.23;;;-2.50;99.90;;;;;;4923503;29;20059;-76
2023/01/21 00:32:18;;;;;;;49.45;25.23;;;-2.40;99.90;;;;;;4926375;29;20047;-76
2023/01/21 00:34:44;;;;;;;56.80;28.08;;;-2.40;99.90;;;;;;4945670;28;20102;-76
2023/01/21 00:37:10;;;;;;;55.10;26.50;;;-2.50;99.90;;;;;;4938026;29;20110;-76
2023/01/21 00:39:41;;;;;;;55.40;25.25;;;-2.60;99.90;;;;;;4958804;28;20050;-76
2023/01/21 00:42:10;;;;;;;54.05;25.95;;;-2.60;99.90;;;;;;4932033;29;20051;-75
2023/01/21 00:44:39;;;;;;;53.92;27.10;;;-2.70;99.90;;;;;;4942676;28;20977;-76
2023/01/21 00:47:04;;;;;;;57.70;25.90;;;-2.80;99.90;;;;;;4942672;29;20046;-76
2023/01/21 00:49:31;;;;;;;57.95;27.83;;;-2.60;99.90;;;;;;4957952;29;20056;-76
2023/01/21 00:51:56;;;;;;;59.40;27.27;;;-2.50;99.90;;;;;;4919887;29;20055;-76
2023/01/21 00:54:22;;;;;;;50.47;23.95;;;-2.50;99.90;;;;;;4957242;28;20051;-76
2023/01/21 00:56:48;;;;;;;53.17;26.45;;;-2.40;99.90;;;;;;4925810;29;20657;-76
2023/01/21 00:59:14;;;;;;;56.22;26.02;;;-2.20;99.90;;;;;;4941502;29;20050;-74
2023/01/21 01:01:40;;;;;;;48.63;24.55;;;-2.20;99.90;;;;;;4940120;29;20050;-75
2023/01/21 01:04:10;;;;;;;53.45;24.05;;;-2.10;99.90;;;;;;4938867;29;20063;-75
2023/01/21 01:06:36;;;;;;;50.10;25.30;;;-1.90;99.90;;;;;;4915616;29;20051;-75
2023/01/21 01:09:02;;;;;;;50.20;24.67;;;-2.00;99.90;;;;;;4939095;29;20623;-75
2023/01/21 01:11:29;;;;;;;50.17;25.77;;;-1.90;99.90;;;;;;4954878;29;20368;-75
2023/01/21 01:13:55;;;;;;;51.90;24.60;;;-1.80;99.90;;;;;;4956095;28;20055;-75
2023/01/21 01:16:20;;;;;;;55.00;25.50;;;-1.70;99.90;;;;;;4924851;29;20051;-74
2023/01/21 01:18:46;;;;;;;49.92;25.33;;;-1.70;99.90;;;;;;4939896;29;20051;-75
2023/01/21 01:21:16;;;;;;;49.72;25.00;;;-1.70;99.90;;;;;;4940724;29;20138;-75
2023/01/21 01:23:42;;;;;;;59.10;25.67;;;-1.60;99.90;;;;;;4922488;29;20042;-75
2023/01/21 01:26:13;;;;;;;46.30;24.17;;;-1.50;99.90;;;;;;4929297;29;20052;-75
2023/01/21 01:28:38;;;;;;;45.97;24.58;;;-1.40;99.90;;;;;;4925476;29;20725;-75
2023/01/21 01:31:05;;;;;;;50.58;26.23;;;-1.50;99.90;;;;;;4925529;29;20138;-76
2023/01/21 01:33:31;;;;;;;54.03;25.63;;;-1.40;99.90;;;;;;4924875;29;20126;-77
2023/01/21 01:36:05;;;;;;;50.08;24.50;;;-1.40;99.90;;;;;;4928491;29;20115;-77
2023/01/21 01:38:31;;;;;;;49.45;25.38;;;-1.50;99.90;;;;;;4912619;29;20044;-77
2023/01/21 01:40:57;;;;;;;54.65;24.70;;;-1.30;99.90;;;;;;4940462;29;20134;-77
2023/01/21 01:43:25;;;;;;;58.05;26.10;;;-1.30;99.90;;;;;;4944140;29;20182;-77
2023/01/21 01:45:51;;;;;;;56.15;25.13;;;-1.30;99.90;;;;;;4926447;29;20035;-77
2023/01/21 01:48:23;;;;;;;57.40;25.63;;;-1.20;99.90;;;;;;4941899;29;20126;-77
2023/01/21 01:50:48;;;;;;;54.10;25.40;;;-1.20;99.90;;;;;;4938563;29;20452;-77
2023/01/21 01:53:17;;;;;;;52.20;25.25;;;-1.20;99.90;;;;;;4944157;28;20111;-77
2023/01/21 01:55:43;;;;;;;59.83;25.25;;;-1.20;99.90;;;;;;4921978;29;20134;-77
2023/01/21 01:58:14;;;;;;;53.72;26.45;;;-1.20;99.90;;;;;;4936663;29;20588;-77
2023/01/21 02:00:40;;;;;;;52.72;25.23;;;-1.10;99.90;;;;;;4942340;28;20409;-77
2023/01/21 02:05:52;;;;;;;49.60;23.43;;;-0.80;99.90;;;;;;4939687;29;20577;-77
2023/01/21 02:08:18;;;;;;;51.17;23.50;;;-0.70;99.90;;;;;;4936824;29;20043;-77
2023/01/21 02:10:44;;;;;;;45.67;22.33;;;-0.60;99.90;;;;;;4925089;29;20812;-77
2023/01/21 02:13:10;;;;;;;52.13;22.42;;;-0.50;99.90;;;;;;4924875;29;20101;-77
2023/01/21 02:15:46;;;;;;;54.85;24.08;;;-0.40;99.90;;;;;;4940617;29;20061;-77
2023/01/21 02:18:19;;;;;;;48.63;22.00;;;-0.50;99.90;;;;;;4952658;29;20620;-77
2023/01/21 02:21:10;;;;;;;46.65;22.50;;;-0.40;99.90;;;;;;4942070;29;20066;-77
2023/01/21 02:23:47;;;;;;;54.05;24.73;;;-0.40;99.90;;;;;;4925045;29;20039;-77
2023/01/21 02:26:30;;;;;;;48.67;23.33;;;-0.40;99.90;;;;;;4952708;29;20358;-76
2023/01/21 02:29:18;;;;;;;51.63;25.83;;;-0.30;99.90;;;;;;4956000;28;20043;-76
2023/01/21 02:31:58;;;;;;;51.03;24.67;;;-0.40;99.90;;;;;;4950481;29;20074;-76
2023/01/21 02:34:42;;;;;;;54.83;24.55;;;-0.50;99.90;;;;;;4956469;28;20051;-76
2023/01/21 02:37:24;;;;;;;54.83;25.30;;;-0.40;99.90;;;;;;4941514;28;20043;-76
2023/01/21 02:40:08;;;;;;;47.47;22.65;;;-0.40;99.90;;;;;;4940198;29;20047;-76
2023/01/21 02:42:50;;;;;;;49.85;24.25;;;-0.30;99.90;;;;;;4951251;29;20043;-76
2023/01/21 02:46:05;;;;;;;45.13;22.48;;;-0.20;99.90;;;;;;4932642;29;20139;-76
2023/01/21 02:48:33;;;;;;;47.38;22.48;;;-0.10;99.90;;;;;;4930346;29;20075;-76
2023/01/21 02:51:00;;;;;;;;;;;0.00;99.90;;;;;;4922400;29;20050;-76
2023/01/21 02:53:28;;;;;;;51.87;22.57;;;-0.10;99.90;;;;;;4939043;29;19918;-76
2023/01/21 02:55:54;;;;;;;51.13;21.52;;;-0.10;99.90;;;;;;4939400;29;20283;-74
2023/01/21 02:58:23;;;;;;;47.92;22.52;;;-0.10;99.90;;;;;;4916641;29;20122;-75
2023/01/21 03:01:12;;;;;;;56.80;24.58;;;0.00;99.90;;;;;;4940060;29;20050;-74
2023/01/21 03:04:09;;;;;;;62.50;26.77;;;-0.10;99.90;;;;;;4945651;29;20047;-75
2023/01/21 03:06:56;;;;;;;57.95;24.67;;;-0.30;99.90;;;;;;4959095;28;20764;-74
2023/01/21 03:09:29;;;;;;;55.17;25.83;;;-0.30;99.90;;;;;;4948448;29;20054;-75
2023/01/21 03:12:04;;;;;;;49.08;23.15;;;-0.20;99.90;;;;;;4923327;29;20050;-75
2023/01/21 03:17:35;;;;;;;51.88;23.02;;;-0.20;99.90;;;;;;4954190;29;20110;-75
2023/01/21 03:20:11;;;;;;;;;;;-0.20;99.90;;;;;;4955899;28;20090;-75
2023/01/21 03:22:38;;;;;;;47.70;22.73;;;-0.10;99.90;;;;;;4970984;28;19929;-75
2023/01/21 03:25:04;;;;;;;51.97;23.75;;;-0.10;99.90;;;;;;4919788;29;20039;-75
2023/01/21 03:27:30;;;;;;;53.03;25.40;;;-0.10;99.90;;;;;;4937979;29;20701;-75
2023/01/21 03:29:58;;;;;;;53.90;25.13;;;-0.10;99.90;;;;;;4969047;28;20232;-75
2023/01/21 03:32:24;;;;;;;49.53;21.67;;;0.00;99.90;;;;;;4961784;28;20373;-75
2023/01/21 03:34:51;;;;;;;46.83;22.08;;;-0.10;99.90;;;;;;4938491;29;20101;-75
2023/01/21 03:37:18;;;;;;;48.50;22.35;;;0.10;99.90;;;;;;4938603;29;20046;-75
2023/01/21 03:39:56;;;;;;;46.85;22.90;;;0.10;99.90;;;;;;4954010;28;20058;-76
2023/01/21 03:42:22;;;;;;;45.25;22.17;;;0.10;99.90;;;;;;4952628;29;20047;-76
2023/01/21 03:44:48;;;;;;;52.15;23.20;;;0.10;99.90;;;;;;4952632;28;21483;-76
2023/01/21 03:47:21;;;;;;;41.35;20.35;;;0.10;99.90;;;;;;4933790;29;20532;-76
2023/01/21 03:49:59;;;;;;;45.33;22.85;;;0.10;99.90;;;;;;4963763;28;20070;-76
2023/01/21 03:52:25;;;;;;;33.07;16.57;;;0.10;99.90;;;;;;4960537;28;20051;-75
2023/01/21 03:54:50;;;;;;;53.35;24.30;;;0.10;99.90;;;;;;4936003;29;20723;-76
2023/01/21 03:57:16;;;;;;;42.15;20.95;;;0.10;99.90;;;;;;4951135;28;20055;-76
2023/01/21 03:59:42;;;;;;;42.38;20.85;;;0.20;99.90;;;;;;4937594;28;20043;-75
2023/01/21 04:02:08;;;;;;;40.85;18.67;;;0.10;99.90;;;;;;4931836;29;20746;-75
2023/01/21 04:04:34;;;;;;;43.35;20.27;;;0.20;99.90;;;;;;4956272;28;20055;-76
2023/01/21 04:07:00;;;;;;;35.45;18.63;;;0.30;99.90;;;;;;4915123;29;20776;-75
2023/01/21 04:09:26;;;;;;;44.30;21.48;;;0.20;99.90;;;;;;4936248;28;20040;-75
2023/01/21 04:11:51;;;;;;;38.35;19.42;;;0.30;99.90;;;;;;4930516;29;20035;-75
2023/01/21 04:14:17;;;;;;;43.47;20.25;;;0.50;99.90;;;;;;4937222;28;20106;-75
2023/01/21 04:16:43;;;;;;;43.50;20.50;;;0.20;99.90;;;;;;4940554;28;20074;-76
2023/01/21 04:19:09;;;;;;;46.33;20.70;;;0.10;99.90;;;;;;4954277;29;20114;-76
2023/01/21 04:21:35;;;;;;;41.15;20.33;;;0.10;99.90;;;;;;4938816;29;20045;-75
2023/01/21 04:24:00;;;;;;;44.90;20.95;;;0.10;99.90;;;;;;4938001;29;20049;-75
2023/01/21 04:26:26;;;;;;;43.67;21.02;;;0.20;99.90;;;;;;4937611;29;20054;-76
2023/01/21 04:28:52;;;;;;;44.65;20.05;;;0.20;99.90;;;;;;4941453;29;20043;-75
2023/01/21 04:31:18;;;;;;;41.92;19.98;;;0.20;99.90;;;;;;4937958;28;20570;-75
2023/01/21 04:33:43;;;;;;;42.95;20.23;;;0.20;99.90;;;;;;4938239;29;20074;-76
2023/01/21 04:36:09;;;;;;;42.13;20.17;;;0.20;99.90;;;;;;4953549;29;20137;-76
2023/01/21 04:38:35;;;;;;;39.78;18.13;;;0.20;99.90;;;;;;4953993;28;20139;-76
2023/01/21 04:41:01;;;;;;;39.80;19.20;;;0.30;99.90;;;;;;4931513;29;20054;-75
2023/01/21 04:43:26;;;;;;;41.03;19.98;;;0.30;99.90;;;;;;4938030;29;20058;-75
2023/01/21 04:45:52;;;;;;;41.55;18.98;;;0.40;99.90;;;;;;4935004;29;20121;-75
2023/01/21 04:48:18;;;;;;;41.22;20.02;;;0.30;99.90;;;;;;4953815;29;20052;-75
2023/01/21 04:50:45;;;;;;;41.25;18.42;;;0.20;99.90;;;;;;4950800;29;20044;-76
2023/01/21 04:53:11;;;;;;;45.90;20.48;;;0.10;99.90;;;;;;4953982;28;20090;-75
2023/01/21 04:55:36;;;;;;;40.00;18.77;;;0.00;99.90;;;;;;4919578;29;20051;-75
2023/01/21 04:58:02;;;;;;;42.88;19.90;;;-0.20;99.90;;;;;;4962217;28;20058;-75
2023/01/21 05:00:28;;;;;;;38.00;18.25;;;-0.20;99.90;;;;;;4923473;29;20051;-76
2023/01/21 05:02:53;;;;;;;43.78;19.50;;;0.00;99.90;;;;;;4972019;28;20061;-76
2023/01/21 05:05:19;;;;;;;39.30;20.00;;;0.00;99.90;;;;;;4940927;29;20055;-76
2023/01/21 05:07:45;;;;;;;43.53;19.65;;;-0.10;99.90;;;;;;4957190;28;20039;-76
2023/01/21 05:10:15;;;;;;;43.05;20.08;;;-0.10;99.90;;;;;;4941074;29;20039;-76
2023/01/21 05:12:40;;;;;;;41.30;18.92;;;-0.10;99.90;;;;;;4940876;29;20051;-75
2023/01/21 05:15:07;;;;;;;45.95;19.33;;;0.10;99.90;;;;;;4941683;29;20052;-76
2023/01/21 05:17:33;;;;;;;39.70;19.85;;;0.10;99.90;;;;;;4938105;29;20559;-76
2023/01/21 05:19:58;;;;;;;39.75;18.55;;;0.10;99.90;;;;;;4937722;29;20131;-76
2023/01/21 05:22:24;;;;;;;42.40;18.38;;;0.10;99.90;;;;;;4959635;28;20396;-76
2023/01/21 05:24:50;;;;;;;40.15;19.13;;;0.10;99.90;;;;;;4938008;29;20039;-76
2023/01/21 05:27:16;;;;;;;42.45;18.55;;;0.10;99.90;;;;;;4939513;28;20058;-76
2023/01/21 05:29:42;;;;;;;33.65;17.27;;;0.30;99.90;;;;;;4953929;28;20056;-76
2023/01/21 05:32:08;;;;;;;35.38;16.50;;;0.30;99.90;;;;;;4906052;29;20866;-75
2023/01/21 05:34:34;;;;;;;31.67;14.10;;;0.30;99.90;;;;;;4938741;29;20054;-76
2023/01/21 05:37:00;;;;;;;25.27;11.68;;;0.30;99.90;;;;;;4918607;29;20047;-75
2023/01/21 05:39:26;;;;;;;19.50;9.98;;;0.20;99.90;;;;;;4928932;29;20106;-76
2023/01/21 05:41:51;;;;;;;21.02;9.80;;;0.20;99.90;;;;;;4956234;28;20057;-75
2023/01/21 05:44:17;;;;;;;18.67;8.50;;;0.10;99.90;;;;;;4940052;28;20456;-75
2023/01/21 05:46:43;;;;;;;18.60;9.25;;;0.20;99.90;;;;;;4934372;29;20047;-75
2023/01/21 05:49:08;;;;;;;18.58;8.52;;;0.10;99.90;;;;;;4951203;28;20051;-75
2023/01/21 05:51:34;;;;;;;19.60;9.60;;;0.20;99.90;;;;;;4953050;28;20047;-75
2023/01/21 05:54:00;;;;;;;18.98;10.05;;;0.20;99.90;;;;;;4924183;29;20047;-76
2023/01/21 05:56:26;;;;;;;18.98;9.40;;;0.10;99.90;;;;;;4949346;29;20043;-76
2023/01/21 05:58:52;;;;;;;19.90;9.48;;;0.20;99.90;;;;;;4939005;29;20137;-75
2023/01/21 06:01:17;;;;;;;19.52;10.10;;;0.20;99.90;;;;;;4930957;28;20483;-75
2023/01/21 06:03:43;;;;;;;21.15;10.15;;;0.20;99.90;;;;;;4939347;28;20047;-76
2023/01/21 06:06:09;;;;;;;22.30;9.75;;;0.20;99.90;;;;;;4939349;29;20460;-76
2023/01/21 06:08:35;;;;;;;22.98;11.82;;;0.30;99.90;;;;;;4933262;29;20358;-75
2023/01/21 06:11:01;;;;;;;18.00;9.40;;;0.40;99.90;;;;;;4959910;28;20043;-75
2023/01/21 06:13:26;;;;;;;20.30;10.40;;;0.40;99.90;;;;;;4957855;28;20050;-76
2023/01/21 06:15:55;;;;;;;23.42;10.82;;;0.30;99.90;;;;;;4934083;28;20377;-76
2023/01/21 06:18:21;;;;;;;22.17;10.43;;;0.40;99.90;;;;;;4953068;28;20129;-76
2023/01/21 06:20:47;;;;;;;25.48;10.80;;;0.30;99.90;;;;;;4958738;28;20047;-76
2023/01/21 06:23:13;;;;;;;21.88;10.50;;;0.30;99.90;;;;;;4939313;29;20058;-75
2023/01/21 06:25:39;;;;;;;23.42;10.15;;;0.50;99.90;;;;;;4922263;29;20126;-75
2023/01/21 06:28:05;;;;;;;21.63;11.38;;;0.40;99.90;;;;;;4939218;29;20095;-75
2023/01/21 06:30:31;;;;;;;19.85;10.13;;;0.50;99.90;;;;;;4923008;28;20059;-75
2023/01/21 06:32:57;;;;;;;22.38;9.52;;;0.40;99.90;;;;;;4947164;29;20350;-76
2023/01/21 06:35:23;;;;;;;22.48;10.30;;;0.30;99.90;;;;;;4935069;29;20052;-77
2023/01/21 06:37:48;;;;;;;23.65;11.10;;;0.30;99.90;;;;;;4918731;29;20083;-76
2023/01/21 06:40:14;;;;;;;22.60;10.73;;;0.20;99.90;;;;;;4928788;29;20059;-76
2023/01/21 06:42:40;;;;;;;24.70;11.82;;;0.40;99.90;;;;;;4931737;29;20075;-77
2023/01/21 06:45:06;;;;;;;23.25;10.98;;;0.20;99.90;;;;;;4934869;29;20121;-75
2023/01/21 06:47:32;;;;;;;22.40;10.77;;;0.30;99.90;;;;;;4927339;29;20054;-75
2023/01/21 06:49:58;;;;;;;24.60;10.63;;;0.30;99.90;;;;;;4949292;28;20126;-76
2023/01/21 06:52:23;;;;;;;20.90;10.15;;;0.40;99.90;;;;;;4926627;28;20051;-76
2023/01/21 06:54:49;;;;;;;23.52;10.82;;;0.40;99.90;;;;;;4920760;29;20055;-76
2023/01/21 06:57:15;;;;;;;21.30;9.85;;;0.40;99.90;;;;;;4946780;28;20054;-75
2023/01/21 06:59:41;;;;;;;23.73;10.35;;;0.40;99.90;;;;;;4934647;29;20122;-76
2023/01/21 07:02:06;;;;;;;24.25;11.23;;;0.50;99.90;;;;;;4932091;29;20050;-76
2023/01/21 07:04:32;;;;;;;23.23;11.38;;;0.40;99.90;;;;;;4921443;29;20082;-76
2023/01/21 07:06:58;;;;;;;24.25;10.77;;;0.40;99.90;;;;;;4932540;29;20047;-76
2023/01/21 07:09:24;;;;;;;23.60;11.23;;;0.30;99.90;;;;;;4949209;29;20499;-76
2023/01/21 07:11:49;;;;;;;24.88;12.05;;;0.40;99.90;;;;;;4936567;29;20117;-75
2023/01/21 07:14:15;;;;;;;25.55;11.13;;;0.30;99.90;;;;;;4919585;28;20563;-76
2023/01/21 07:16:41;;;;;;;24.50;10.77;;;0.40;99.90;;;;;;4911485;29;20052;-76
2023/01/21 07:19:07;;;;;;;20.63;9.48;;;0.50;99.90;;;;;;4951910;28;20539;-76
2023/01/21 07:21:33;;;;;;;22.00;10.00;;;0.50;99.90;;;;;;4936802;28;20110;-76
2023/01/21 07:23:59;;;;;;;18.60;9.23;;;0.70;99.90;;;;;;4936111;29;20062;-76
2023/01/21 07:26:25;;;;;;;20.40;9.52;;;0.60;99.90;;;;;;4936594;29;20039;-75
2023/01/21 07:28:51;;;;;;;21.98;9.93;;;0.50;99.90;;;;;;4951653;29;20054;-76
2023/01/21 07:31:17;;;;;;;23.00;10.70;;;0.50;99.90;;;;;;4931899;29;20850;-75
2023/01/21 07:33:42;;;;;;;19.40;9.02;;;0.40;99.90;;;;;;4929054;29;20074;-75
2023/01/21 07:36:08;;;;;;;19.92;9.18;;;0.40;99.90;;;;;;4909038;29;20071;-75
2023/01/21 07:38:34;;;;;;;24.23;10.23;;;0.40;99.90;;;;;;4935522;29;20150;-75
2023/01/21 07:41:00;;;;;;;22.35;10.70;;;0.60;99.90;;;;;;4967378;28;20488;-74
2023/01/21 07:43:27;;;;;;;21.35;10.18;;;0.40;99.90;;;;;;4930434;29;20046;-75
2023/01/21 07:45:53;;;;;;;19.05;9.70;;;0.40;99.90;;;;;;4950553;29;20049;-74
2023/01/21 07:48:19;;;;;;;17.98;9.18;;;0.40;99.90;;;;;;4919299;29;20047;-74
2023/01/21 07:50:45;;;;;;;17.90;8.70;;;0.40;99.90;;;;;;4951120;28;20380;-75
2023/01/21 07:53:11;;;;;;;19.25;8.38;;;0.40;99.90;;;;;;4936540;29;20121;-75
2023/01/21 07:55:37;;;;;;;17.73;7.05;;;0.50;99.90;;;;;;4914893;29;20052;-74
2023/01/21 07:58:02;;;;;;;18.25;8.52;;;0.40;99.90;;;;;;4944160;29;20054;-75
2023/01/21 08:00:29;;;;;;;21.38;8.00;;;0.50;99.90;;;;;;4916351;29;20054;-75
2023/01/21 08:02:55;;;;;;;19.10;9.20;;;0.50;99.90;;;;;;4928378;29;20424;-75
2023/01/21 08:05:24;;;;;;;18.55;8.70;;;0.50;99.90;;;;;;4954120;28;20047;-75
2023/01/21 08:07:50;;;;;;;18.92;8.75;;;0.40;99.90;;;;;;4934997;29;20054;-75
2023/01/21 08:10:17;;;;;;;17.90;8.75;;;0.50;99.90;;;;;;4931804;29;20055;-75
2023/01/21 08:12:43;;;;;;;17.67;9.05;;;0.40;99.90;;;;;;4913904;29;20075;-75
2023/01/21 08:15:09;;;;;;;18.42;9.68;;;0.50;99.90;;;;;;4926771;29;20079;-75
2023/01/21 08:17:38;;;;;;;20.13;9.35;;;0.60;99.90;;;;;;4934445;29;20055;-75
2023/01/21 08:20:05;;;;;;;23.95;9.68;;;0.60;99.90;;;;;;4925410;29;21032;-75
2023/01/21 08:22:31;;;;;;;19.90;10.30;;;0.70;99.90;;;;;;4913990;29;20378;-75
2023/01/21 08:24:57;;;;;;;18.80;9.23;;;0.60;99.90;;;;;;4937197;29;20039;-75
2023/01/21 08:27:23;;;;;;;21.70;10.50;;;0.60;99.90;;;;;;4953895;28;20039;-75
2023/01/21 08:29:48;;;;;;;21.50;10.35;;;0.70;99.90;;;;;;4944841;28;20078;-75
2023/01/21 08:32:14;;;;;;;21.92;10.02;;;0.60;99.90;;;;;;4923877;29;20048;-75
2023/01/21 08:34:40;;;;;;;21.88;10.70;;;0.70;99.90;;;;;;4955612;29;20368;-75
2023/01/21 08:37:06;;;;;;;22.83;11.30;;;0.60;99.90;;;;;;4941324;28;20341;-74
2023/01/21 08:39:32;;;;;;;24.42;10.55;;;0.60;99.90;;;;;;4922462;29;20047;-75
2023/01/21 08:41:58;;;;;;;21.85;10.93;;;0.60;99.90;;;;;;4924067;29;20043;-75
2023/01/21 08:44:24;;;;;;;22.48;10.75;;;0.60;99.90;;;;;;4929939;29;20055;-76
2023/01/21 08:46:49;;;;;;;24.00;11.35;;;0.70;99.90;;;;;;4937637;29;20043;-77
2023/01/21 08:49:15;;;;;;;24.27;11.25;;;0.70;99.90;;;;;;4924978;29;20129;-76
2023/01/21 08:51:41;;;;;;;25.52;11.93;;;0.70;99.90;;;;;;4940290;28;20353;-76
2023/01/21 08:54:07;;;;;;;27.10;11.38;;;0.60;99.90;;;;;;4924272;29;20079;-77
2023/01/21 08:56:33;;;;;;;24.17;11.52;;;0.50;99.90;;;;;;4937170;28;20051;-76
2023/01/21 08:59:01;;;;;;;24.85;11.30;;;0.60;99.90;;;;;;4937805;29;20110;-76
2023/01/21 09:01:28;;;;;;;26.48;11.65;;;0.50;99.90;;;;;;4924708;29;20159;-76
2023/01/21 09:03:57;;;;;;;25.25;11.27;;;0.60;99.90;;;;;;4925387;29;20048;-76
2023/01/21 09:06:24;;;;;;;27.60;12.13;;;0.60;99.90;;;;;;4938925;29;20051;-73
2023/01/21 09:08:50;;;;;;;30.13;12.18;;;0.50;99.90;;;;;;4924674;29;20038;-74
2023/01/21 09:11:16;;;;;;;24.38;11.90;;;0.50;99.90;;;;;;4923932;29;20051;-73
2023/01/21 09:13:45;;;;;;;29.33;11.73;;;0.50;99.90;;;;;;4939911;28;20479;-74
2023/01/21 09:16:16;;;;;;;26.90;12.90;;;0.50;99.90;;;;;;4938573;28;20043;-74
2023/01/21 09:18:42;;;;;;;28.85;13.68;;;0.50;99.90;;;;;;4939899;29;20050;-74
2023/01/21 09:21:08;;;;;;;30.52;13.10;;;0.50;99.90;;;;;;4940984;28;20051;-74
2023/01/21 09:23:34;;;;;;;28.17;13.95;;;0.50;99.90;;;;;;4941153;29;20129;-74
2023/01/21 09:26:04;;;;;;;31.83;14.45;;;0.70;99.90;;;;;;4914716;29;20377;-74
2023/01/21 09:28:30;;;;;;;30.63;13.23;;;0.60;99.90;;;;;;4954835;28;20051;-74
2023/01/21 09:31:01;;;;;;;29.63;13.63;;;0.70;99.90;;;;;;4940808;28;20058;-74
2023/01/21 09:33:27;;;;;;;27.92;13.50;;;0.60;99.90;;;;;;4931950;29;20052;-74
2023/01/21 09:35:54;;;;;;;30.90;13.95;;;0.70;99.90;;;;;;4930948;29;20058;-74
2023/01/21 09:38:19;;;;;;;30.92;13.48;;;0.70;99.90;;;;;;4940647;28;20051;-74
2023/01/21 09:40:45;;;;;;;29.80;13.82;;;0.80;99.90;;;;;;4927140;29;20138;-74
2023/01/21 09:43:14;;;;;;;34.63;14.57;;;0.70;99.90;;;;;;4921977;29;20126;-74
2023/01/21 09:45:40;;;;;;;35.50;14.82;;;0.80;99.90;;;;;;4924963;29;20110;-74
2023/01/21 09:48:10;;;;;;;28.75;14.50;;;0.60;99.90;;;;;;4925661;29;20481;-74
2023/01/21 09:50:36;;;;;;;33.73;15.03;;;0.70;99.90;;;;;;4924191;28;20061;-74
2023/01/21 09:53:06;;;;;;;28.48;12.93;;;0.80;99.90;;;;;;4930876;29;20043;-74
2023/01/21 09:55:40;;;;;;;28.00;13.20;;;0.90;99.90;;;;;;4909425;29;20079;-74
2023/01/21 09:58:05;;;;;;;29.17;13.57;;;0.90;99.90;;;;;;4938556;29;20476;-74
2023/01/21 10:00:53;;;;;;;28.10;13.93;;;0.90;99.90;;;;;;4957599;28;20043;-74
2023/01/21 10:03:24;;;;;;;28.73;13.00;;;1.00;99.90;;;;;;4941561;29;20058;-74
2023/01/21 10:06:14;;;;;;;33.20;14.55;;;1.00;99.90;;;;;;4956613;28;20281;-75
2023/01/21 10:09:05;;;;;;;29.83;13.82;;;1.10;99.90;;;;;;4956038;28;20152;-75
2023/01/21 10:11:43;;;;;;;30.23;13.35;;;1.00;99.90;;;;;;4955930;29;20039;-74
2023/01/21 10:14:40;;;;;;;28.77;12.63;;;1.10;99.90;;;;;;4928377;29;20130;-74
2023/01/21 10:17:32;;;;;;;28.80;13.30;;;1.20;99.90;;;;;;4925357;29;20052;-74
2023/01/21 10:20:01;;;;;;;26.13;12.85;;;1.20;99.90;;;;;;4962154;28;20495;-74
2023/01/21 10:22:30;;;;;;;33.17;13.77;;;1.30;99.90;;;;;;4956570;29;20551;-74
2023/01/21 10:25:02;;;;;;;24.80;12.55;;;1.30;99.90;;;;;;4924496;29;20051;-74
2023/01/21 10:27:28;;;;;;;30.48;14.13;;;1.20;99.90;;;;;;4941186;28;20043;-75
2023/01/21 10:30:01;;;;;;;30.48;13.20;;;1.30;99.90;;;;;;4939827;29;20051;-75
2023/01/21 10:32:27;;;;;;;26.00;12.57;;;1.30;99.90;;;;;;4922823;29;20142;-74
2023/01/21 10:34:54;;;;;;;25.13;12.38;;;1.30;99.90;;;;;;4933508;29;20078;-74
2023/01/21 10:37:44;;;;;;;26.20;12.97;;;1.40;99.90;;;;;;4940575;29;20472;-75
2023/01/21 10:40:41;;;;;;;28.25;12.98;;;1.50;99.90;;;;;;4954965;28;20070;-74
2023/01/21 10:43:32;;;;;;;25.30;12.93;;;1.40;99.90;;;;;;4950001;29;20182;-74
2023/01/21 10:46:03;;;;;;;26.05;12.23;;;1.60;99.90;;;;;;4936570;29;20054;-74
2023/01/21 10:49:04;;;;;;;25.13;12.98;;;1.60;99.90;;;;;;4954895;28;20043;-74
2023/01/21 10:51:45;;;;;;;24.85;12.60;;;1.60;99.90;;;;;;4902968;29;20040;-74
2023/01/21 10:54:16;;;;;;;26.17;12.55;;;1.70;99.90;;;;;;4923198;29;20431;-74
2023/01/21 10:56:59;;;;;;;23.10;12.15;;;1.80;99.90;;;;;;4954409;28;20053;-74
2023/01/21 10:59:26;;;;;;;23.98;13.10;;;1.80;99.90;;;;;;4933714;29;20358;-74
2023/01/21 11:02:08;;;;;;;23.50;12.23;;;1.80;99.90;;;;;;4939264;29;20051;-74
2023/01/21 11:04:35;;;;;;;27.35;12.60;;;1.70;99.90;;;;;;4931596;29;20047;-74
2023/01/21 11:07:06;;;;;;;25.48;12.95;;;1.80;99.90;;;;;;4927917;29;20044;-75
2023/01/21 11:09:37;;;;;;;23.90;11.98;;;1.90;99.90;;;;;;4923283;29;20063;-74
2023/01/21 11:12:03;;;;;;;23.48;11.60;;;1.90;99.90;;;;;;4919797;29;20114;-75
2023/01/21 11:14:29;;;;;;;22.17;10.88;;;2.00;99.90;;;;;;4935993;29;20057;-74
2023/01/21 11:16:55;;;;;;;22.30;11.40;;;2.00;99.90;;;;;;4932866;29;20048;-75
2023/01/21 11:19:25;;;;;;;23.77;11.07;;;2.00;99.90;;;;;;4940893;28;20102;-74
2023/01/21 11:22:04;;;;;;;25.52;12.10;;;2.10;99.90;;;;;;4932240;28;20051;-74
2023/01/21 11:24:31;;;;;;;24.42;11.65;;;2.30;99.90;;;;;;4939398;29;20047;-75
2023/01/21 11:27:00;;;;;;;19.48;11.13;;;2.30;99.90;;;;;;4923641;29;20043;-75
2023/01/21 11:29:28;;;;;;;21.92;11.48;;;2.50;99.90;;;;;;4923439;28;20040;-75
2023/01/21 11:32:06;;;;;;;20.33;10.93;;;2.60;99.90;;;;;;4923657;29;20075;-74
2023/01/21 11:34:32;;;;;;;19.85;10.85;;;2.80;99.90;;;;;;4924217;29;20278;-74
2023/01/21 11:37:02;;;;;;;25.33;11.75;;;2.70;99.90;;;;;;4923139;29;20357;-74
2023/01/21 11:39:33;;;;;;;22.80;11.00;;;2.60;99.90;;;;;;4923766;29;20071;-74
2023/01/21 11:42:10;;;;;;;20.10;11.07;;;2.80;99.90;;;;;;4923272;29;20690;-74
2023/01/21 11:44:37;;;;;;;20.50;9.70;;;2.80;99.90;;;;;;4939906;29;20071;-74
2023/01/21 11:47:07;;;;;;;24.20;11.27;;;2.70;99.90;;;;;;4944214;29;20470;-74
2023/01/21 11:49:32;;;;;;;22.67;10.90;;;2.80;99.90;;;;;;4923642;29;20049;-74
2023/01/21 11:52:11;;;;;;;19.73;10.23;;;2.60;99.90;;;;;;4919679;29;20043;-74
2023/01/21 11:54:40;;;;;;;19.48;10.13;;;2.90;99.90;;;;;;4933247;28;20059;-74
2023/01/21 11:57:21;;;;;;;21.50;10.60;;;2.90;99.90;;;;;;4921069;29;20054;-74
2023/01/21 11:59:47;;;;;;;21.45;9.85;;;2.90;99.90;;;;;;4933685;29;20130;-74
2023/01/21 12:02:18;;;;;;;23.15;10.05;;;2.80;99.90;;;;;;4937567;29;20138;-74
2023/01/21 12:04:46;;;;;;;22.38;9.57;;;2.80;99.90;;;;;;4916237;29;20162;-74
2023/01/21 12:07:23;;;;;;;20.88;11.45;;;3.30;99.90;;;;;;4939060;29;20136;-74
2023/01/21 12:09:52;;;;;;;17.95;10.07;;;3.60;99.90;;;;;;4923595;29;20795;-75
2023/01/21 12:12:22;;;;;;;18.63;10.07;;;4.40;99.90;;;;;;4918789;29;20085;-74
2023/01/21 12:14:53;;;;;;;20.95;9.13;;;4.50;99.90;;;;;;4936099;29;20082;-74
2023/01/21 12:17:30;;;;;;;19.58;10.25;;;3.90;99.90;;;;;;4937902;29;20047;-74
2023/01/21 12:20:10;;;;;;;22.17;10.88;;;3.80;99.90;;;;;;4921116;28;20043;-74
2023/01/21 12:22:56;;;;;;;23.25;10.95;;;3.90;99.90;;;;;;4920243;29;20079;-74
2023/01/21 12:25:58;;;;;;;22.13;10.95;;;4.40;99.90;;;;;;4937874;29;20054;-74
2023/01/21 12:28:38;;;;;;;18.65;9.77;;;4.60;99.90;;;;;;4953070;28;20102;-74
2023/01/21 12:31:13;;;;;;;18.77;10.63;;;4.50;99.90;;;;;;4949507;28;20783;-74
2023/01/21 12:33:59;;;;;;;21.40;10.50;;;4.60;99.90;;;;;;4923618;29;20741;-74
2023/01/21 12:36:28;;;;;;;19.90;10.10;;;5.10;99.90;;;;;;4944198;28;20050;-74
2023/01/21 12:39:20;;;;;;;21.65;10.43;;;5.00;99.90;;;;;;4953930;28;20054;-73
2023/01/21 12:41:50;;;;;;;19.80;10.18;;;4.30;99.90;;;;;;4925592;29;20074;-74
2023/01/21 12:44:49;;;;;;;20.42;9.95;;;3.90;99.90;;;;;;4938115;29;20134;-75
2023/01/21 12:47:26;;;;;;;22.77;11.30;;;3.90;99.90;;;;;;4938630;29;20040;-75
2023/01/21 12:50:01;;;;;;;21.98;10.80;;;3.60;99.90;;;;;;4931596;29;20044;-75
2023/01/21 12:53:08;;;;;;;20.83;10.02;;;3.60;99.90;;;;;;4950770;29;21120;-76